createdAt,value
2023-01-12T00:02:27.270Z,102145.38
2023-01-12T00:04:55.678Z,102151.66
2023-01-12T00:07:23.983Z,102151.94
2023-01-12T00:09:52.359Z,102153.78
2023-01-12T00:12:20.701Z,102156.50
2023-01-12T00:14:49.044Z,102153.97
2023-01-12T00:17:19.745Z,102154.34
2023-01-12T00:19:48.177Z,102154.66
2023-01-12T00:22:18.668Z,102157.31
2023-01-12T00:24:49.892Z,102133.81
2023-01-12T00:27:20.335Z,102118.09
2023-01-12T00:29:49.271Z,102156.00
2023-01-12T00:32:21.368Z,102109.66
2023-01-12T00:34:49.825Z,102146.72
2023-01-12T00:37:20.722Z,102150.22
2023-01-12T00:40:01.553Z,102149.06
2023-01-12T00:42:48.225Z,102146.72
2023-01-12T00:45:22.848Z,102150.16
2023-01-12T00:47:53.534Z,102159.63
2023-01-12T00:50:21.961Z,102148.13
2023-01-12T00:52:50.301Z,102150.97
2023-01-12T00:55:18.687Z,102142.31
2023-01-12T00:57:47.052Z,102147.13
2023-01-12T01:00:16.238Z,102136.09
2023-01-12T01:02:44.631Z,102145.00
2023-01-12T01:05:14.469Z,102146.84
2023-01-12T01:07:42.814Z,102156.63
2023-01-12T01:10:12.497Z,102150.53
2023-01-12T01:12:40.942Z,102150.53
2023-01-12T01:15:10.225Z,102149.63
2023-01-12T01:17:38.603Z,102146.44
2023-01-12T01:20:07.607Z,102145.44
2023-01-12T01:22:37.375Z,102147.22
2023-01-12T01:25:06.538Z,102150.78
2023-01-12T01:27:34.898Z,102152.56
2023-01-12T01:30:03.430Z,102144.59
2023-01-12T01:32:31.916Z,102149.31
2023-01-12T01:35:00.259Z,102155.06
2023-01-12T01:37:29.845Z,102153.22
2023-01-12T01:39:59.505Z,102153.63
2023-01-12T01:42:30.697Z,102147.22
2023-01-12T01:45:07.674Z,102162.03
2023-01-12T01:47:40.542Z,102147.91
2023-01-12T01:50:16.523Z,102137.44
2023-01-12T01:52:48.211Z,102142.00
2023-01-12T01:55:22.092Z,102123.59
2023-01-12T01:57:56.274Z,102149.84
2023-01-12T02:00:26.579Z,102014.97
2023-01-12T02:02:56.050Z,102146.34
2023-01-12T02:05:27.671Z,102157.16
2023-01-12T02:08:01.549Z,102162.69
2023-01-12T02:10:31.399Z,102166.22
2023-01-12T02:13:17.783Z,102155.66
2023-01-12T02:16:21.711Z,102155.94
2023-01-12T02:19:09.039Z,102160.78
2023-01-12T02:22:08.583Z,102159.13
2023-01-12T02:24:58.060Z,102158.03
2023-01-12T02:27:43.787Z,102151.81
2023-01-12T02:30:48.416Z,102159.97
2023-01-12T02:33:31.438Z,102147.69
2023-01-12T02:36:07.808Z,102147.56
2023-01-12T02:38:41.664Z,102117.31
2023-01-12T02:41:40.533Z,102150.53
2023-01-12T02:44:13.750Z,102164.66
2023-01-12T02:46:47.283Z,102148.53
2023-01-12T02:49:22.430Z,102110.31
2023-01-12T02:51:55.334Z,102106.06
2023-01-12T02:54:26.445Z,101992.44
2023-01-12T02:56:57.591Z,102129.81
2023-01-12T02:59:29.280Z,102111.69
2023-01-12T03:02:02.585Z,101981.09
2023-01-12T03:04:34.262Z,102118.34
2023-01-12T03:07:33.260Z,102144.13
2023-01-12T03:10:14.847Z,102144.34
2023-01-12T03:12:44.956Z,102100.47
2023-01-12T03:15:17.226Z,102132.06
2023-01-12T03:17:51.688Z,102132.13
2023-01-12T03:20:26.082Z,102093.22
2023-01-12T03:22:59.209Z,102090.97
2023-01-12T03:25:29.809Z,102123.81
2023-01-12T03:28:01.433Z,102097.47
2023-01-12T03:30:35.122Z,102136.78
2023-01-12T03:33:04.076Z,102143.25
2023-01-12T03:35:38.607Z,102136.25
2023-01-12T03:38:17.492Z,102100.03
2023-01-12T03:40:50.540Z,102139.59
2023-01-12T03:43:24.352Z,102112.78
2023-01-12T03:45:58.833Z,102140.31
2023-01-12T03:48:32.575Z,102106.06
2023-01-12T03:51:08.257Z,102146.13
2023-01-12T03:53:37.452Z,102132.50
2023-01-12T03:56:09.405Z,102127.28
2023-01-12T03:58:38.840Z,102147.72
2023-01-12T04:01:07.575Z,102159.25
2023-01-12T04:03:36.169Z,102160.00
2023-01-12T04:06:08.384Z,102155.81
2023-01-12T04:08:37.139Z,102161.03
2023-01-12T04:11:25.957Z,102152.31
2023-01-12T04:13:53.363Z,102157.72
2023-01-12T04:16:21.835Z,102165.63
2023-01-12T04:18:50.157Z,102161.31
2023-01-12T04:21:39.883Z,102168.28
2023-01-12T04:24:08.529Z,102177.09
2023-01-12T04:26:36.827Z,102178.81
2023-01-12T04:29:05.418Z,102183.25
2023-01-12T04:31:33.890Z,102180.72
2023-01-12T04:34:02.424Z,102180.66
2023-01-12T04:36:32.121Z,102167.06
2023-01-12T04:39:00.937Z,102175.03
2023-01-12T04:41:29.283Z,102171.59
2023-01-12T04:43:58.629Z,102174.34
2023-01-12T04:46:27.153Z,102178.16
2023-01-12T04:48:55.518Z,102170.97
2023-01-12T04:51:23.919Z,102175.09
2023-01-12T04:53:53.695Z,102175.97
2023-01-12T04:56:22.125Z,102177.69
2023-01-12T04:58:50.457Z,102166.31
2023-01-12T05:02:09.542Z,102171.72
2023-01-12T05:04:38.005Z,102170.25
2023-01-12T05:07:06.364Z,102166.66
2023-01-12T05:09:53.317Z,102174.41
2023-01-12T05:12:21.683Z,102170.25
2023-01-12T05:14:50.718Z,102173.72
2023-01-12T05:17:19.015Z,102171.88
2023-01-12T05:19:48.752Z,102163.91
2023-01-12T05:22:17.327Z,102163.00
2023-01-12T05:24:47.059Z,102164.72
2023-01-12T05:27:15.433Z,102163.69
2023-01-12T05:29:43.749Z,102155.53
2023-01-12T05:32:12.176Z,102151.97
2023-01-12T05:34:40.534Z,102154.63
2023-01-12T05:37:08.913Z,102169.03
2023-01-12T05:39:37.257Z,102169.31
2023-01-12T05:42:24.828Z,102167.25
2023-01-12T05:44:53.203Z,102168.16
2023-01-12T05:47:21.542Z,102155.78
2023-01-12T05:49:49.928Z,102165.25
2023-01-12T05:52:18.209Z,102179.19
2023-01-12T05:54:46.641Z,102182.63
2023-01-12T05:57:16.284Z,102179.84
2023-01-12T05:59:44.706Z,102175.53
2023-01-12T06:02:17.257Z,102159.81
2023-01-12T06:04:45.734Z,102165.19
2023-01-12T06:07:15.234Z,102160.94
2023-01-12T06:09:43.937Z,102166.22
2023-01-12T06:12:30.811Z,102170.47
2023-01-12T06:15:00.659Z,102175.63
2023-01-12T06:17:28.979Z,102173.22
2023-01-12T06:19:57.290Z,102175.09
2023-01-12T06:22:27.230Z,102167.47
2023-01-12T06:24:55.540Z,102175.53
2023-01-12T06:27:23.918Z,102184.72
2023-01-12T06:29:52.402Z,102183.28
2023-01-12T06:32:22.144Z,102184.94
2023-01-12T06:34:50.431Z,102192.75
2023-01-12T06:37:18.767Z,102201.63
2023-01-12T06:39:47.114Z,102198.06
2023-01-12T06:42:31.873Z,102195.38
2023-01-12T06:45:03.870Z,102178.38
2023-01-12T06:47:33.795Z,102201.63
2023-01-12T06:50:02.214Z,102212.06
2023-01-12T06:52:39.693Z,102204.09
2023-01-12T06:55:09.564Z,102207.72
2023-01-12T06:57:37.907Z,102211.47
2023-01-12T07:00:07.879Z,102212.28
2023-01-12T07:02:37.573Z,102200.91
2023-01-12T07:05:10.611Z,102172.25
2023-01-12T07:07:40.396Z,102187.53
2023-01-12T07:10:09.780Z,102191.06
2023-01-12T07:12:38.127Z,102196.34
2023-01-12T07:15:07.323Z,102205.44
2023-01-12T07:17:37.159Z,102200.56
2023-01-12T07:20:06.208Z,102201.38
2023-01-12T07:22:34.657Z,102189.41
2023-01-12T07:25:02.975Z,102194.53
2023-01-12T07:27:31.367Z,102201.31
2023-01-12T07:29:59.677Z,102206.03
2023-01-12T07:32:29.976Z,102206.66
2023-01-12T07:34:59.867Z,102216.78
2023-01-12T07:37:28.263Z,102214.88
2023-01-12T07:39:58.958Z,102219.38
2023-01-12T07:42:27.573Z,102214.81
2023-01-12T07:44:55.917Z,102224.34
2023-01-12T07:47:24.287Z,102236.50
2023-01-12T07:49:52.638Z,102235.19
2023-01-12T07:52:22.379Z,102233.16
2023-01-12T07:54:50.770Z,102237.47
2023-01-12T07:57:19.061Z,102236.34
2023-01-12T07:59:47.387Z,102225.56
2023-01-12T08:02:17.118Z,102233.34
2023-01-12T08:04:46.083Z,102180.34
2023-01-12T08:07:15.259Z,102240.69
2023-01-12T08:09:44.996Z,102240.81
2023-01-12T08:12:14.608Z,102246.34
2023-01-12T08:14:43.361Z,102233.25
2023-01-12T08:17:16.963Z,102234.34
2023-01-12T08:19:49.560Z,102232.25
2023-01-12T08:22:23.312Z,102239.09
2023-01-12T08:24:57.592Z,102099.84
2023-01-12T08:27:30.446Z,102242.19
2023-01-12T08:30:00.130Z,102245.50
2023-01-12T08:32:30.231Z,102248.53
2023-01-12T08:35:01.870Z,102255.88
2023-01-12T08:37:32.054Z,102248.81
2023-01-12T08:40:02.279Z,102249.38
2023-01-12T08:42:31.960Z,102252.41
2023-01-12T08:45:00.467Z,102253.72
2023-01-12T08:47:30.761Z,102261.47
2023-01-12T08:50:00.636Z,102262.56
2023-01-12T08:52:32.655Z,102252.66
2023-01-12T08:55:02.455Z,102250.72
2023-01-12T08:57:30.825Z,102260.22
2023-01-12T08:59:59.206Z,102258.19
2023-01-12T09:02:27.986Z,102262.97
2023-01-12T09:04:56.323Z,102268.81
2023-01-12T09:07:24.587Z,102271.47
2023-01-12T09:09:53.937Z,102272.84
2023-01-12T09:12:24.545Z,102265.59
2023-01-12T09:14:54.192Z,102265.34
2023-01-12T09:17:24.219Z,102254.03
2023-01-12T09:19:52.507Z,102262.47
2023-01-12T09:22:20.945Z,102261.44
2023-01-12T09:24:49.347Z,102264.09
2023-01-12T09:27:18.624Z,102265.03
2023-01-12T09:29:48.406Z,102267.63
2023-01-12T09:32:18.549Z,102271.13
2023-01-12T09:34:55.054Z,102268.47
2023-01-12T09:37:23.385Z,102276.13
2023-01-12T09:39:51.753Z,102273.97
2023-01-12T09:42:40.837Z,102270.91
2023-01-12T09:45:37.661Z,102277.78
2023-01-12T09:48:08.008Z,102281.31
2023-01-12T09:50:38.261Z,102248.97
2023-01-12T09:53:13.097Z,102275.00
2023-01-12T09:55:48.816Z,102269.72
2023-01-12T09:58:27.719Z,102276.31
2023-01-12T10:00:59.620Z,102260.03
2023-01-12T10:03:32.251Z,102250.63
2023-01-12T10:06:01.802Z,102247.44
2023-01-12T10:08:34.069Z,102206.09
2023-01-12T10:11:13.098Z,102238.78
2023-01-12T10:14:12.347Z,102219.38
2023-01-12T10:16:52.438Z,102250.44
2023-01-12T10:19:27.116Z,102200.03
2023-01-12T10:21:55.820Z,102211.72
2023-01-12T10:24:25.921Z,102207.41
2023-01-12T10:27:01.457Z,102203.16
2023-01-12T10:29:31.868Z,102168.03
2023-01-12T10:32:01.634Z,102193.44
2023-01-12T10:34:48.987Z,102188.50
2023-01-12T10:37:17.650Z,102177.72
2023-01-12T10:39:46.347Z,102173.84
2023-01-12T10:42:39.396Z,102174.50
2023-01-12T10:45:16.220Z,102174.50
2023-01-12T10:47:47.221Z,102177.16
2023-01-12T10:50:28.062Z,102078.06
2023-01-12T10:53:00.795Z,102177.69
2023-01-12T10:55:33.515Z,102165.09
2023-01-12T10:58:02.954Z,102161.56
2023-01-12T11:00:31.785Z,102160.44
2023-01-12T11:03:01.911Z,102148.47
2023-01-12T11:05:36.840Z,102139.38
2023-01-12T11:08:05.656Z,102154.44
2023-01-12T11:10:37.533Z,102152.41
2023-01-12T11:13:09.104Z,102150.47
2023-01-12T11:15:40.142Z,102156.25
2023-01-12T11:18:32.178Z,102151.03
2023-01-12T11:21:04.365Z,102136.78
2023-01-12T11:23:38.011Z,102129.19
2023-01-12T11:26:17.021Z,102118.63
2023-01-12T11:28:49.228Z,102109.50
2023-01-12T11:31:24.049Z,102095.22
2023-01-12T11:33:59.760Z,102070.78
2023-01-12T11:36:31.450Z,102096.25
2023-01-12T11:39:05.879Z,102101.75
2023-01-12T11:41:39.360Z,102087.22
2023-01-12T11:44:16.040Z,102107.97
2023-01-12T11:46:48.235Z,102082.34
2023-01-12T11:49:24.289Z,102056.31
2023-01-12T11:51:57.058Z,101957.50
2023-01-12T11:54:27.217Z,102074.84
2023-01-12T11:57:18.698Z,102067.53
2023-01-12T11:59:57.130Z,102047.41
2023-01-12T12:02:37.191Z,102062.03
2023-01-12T12:05:29.871Z,102048.28
2023-01-12T12:08:14.385Z,102041.59
2023-01-12T12:10:49.137Z,102033.31
2023-01-12T12:13:48.981Z,102022.38
2023-01-12T12:16:28.757Z,102012.50
2023-01-12T12:19:20.195Z,102013.47
2023-01-12T12:21:52.162Z,101995.06
2023-01-12T12:24:32.524Z,101895.19
2023-01-12T12:27:13.114Z,102009.22
2023-01-12T12:30:04.411Z,102004.84
2023-01-12T12:32:41.462Z,101992.28
2023-01-12T12:35:41.514Z,101989.38
2023-01-12T12:38:26.439Z,101989.00
2023-01-12T12:41:29.396Z,101990.91
2023-01-12T12:44:28.534Z,101955.75
2023-01-12T12:47:07.215Z,101943.16
2023-01-12T12:49:38.608Z,101932.19
2023-01-12T12:52:09.121Z,101964.94
2023-01-12T12:54:39.209Z,101963.47
2023-01-12T12:57:07.578Z,101958.56
2023-01-12T12:59:57.160Z,101946.75
2023-01-12T13:02:38.877Z,101909.34
2023-01-12T13:05:09.749Z,101936.31
2023-01-12T13:07:45.459Z,101939.84
2023-01-12T13:10:33.377Z,101931.69
2023-01-12T13:13:24.496Z,101929.00
2023-01-12T13:16:45.752Z,101921.94
2023-01-12T13:19:37.765Z,101911.22
2023-01-12T13:22:29.512Z,101919.97
2023-01-12T13:25:02.533Z,101932.41
2023-01-12T13:27:54.266Z,101926.78
2023-01-12T13:30:26.235Z,101890.81
2023-01-12T13:33:01.969Z,101916.78
2023-01-12T13:36:11.501Z,101902.66
2023-01-12T13:39:04.968Z,101899.25
2023-01-12T13:41:53.603Z,101882.75
2023-01-12T13:44:27.078Z,101898.78
2023-01-12T13:47:04.459Z,101807.41
2023-01-12T13:49:34.373Z,101895.38
2023-01-12T13:52:06.594Z,101898.78
2023-01-12T13:54:36.150Z,101893.66
2023-01-12T13:57:10.814Z,101888.47
2023-01-12T13:59:39.118Z,101873.72
2023-01-12T14:02:19.494Z,101882.50
2023-01-12T14:05:07.640Z,101760.22
2023-01-12T14:07:55.243Z,101881.06
2023-01-12T14:10:37.417Z,101838.97
2023-01-12T14:13:27.179Z,101863.41
2023-01-12T14:16:19.599Z,101867.19
2023-01-12T14:18:50.824Z,101834.88
2023-01-12T14:21:24.736Z,101826.34
2023-01-12T14:23:55.480Z,101865.00
2023-01-12T14:26:27.301Z,101850.06
2023-01-12T14:28:55.725Z,101872.94
2023-01-12T14:31:28.480Z,101877.06
2023-01-12T14:33:59.564Z,101879.88
2023-01-12T14:36:30.603Z,101876.06
2023-01-12T14:39:01.608Z,101867.81
2023-01-12T14:41:48.896Z,101874.00
2023-01-12T14:44:37.896Z,101839.44
2023-01-12T14:47:06.985Z,101859.22
2023-01-12T14:49:37.721Z,101871.53
2023-01-12T14:52:27.681Z,101876.16
2023-01-12T14:55:14.662Z,101779.53
2023-01-12T14:57:43.951Z,101882.03
2023-01-12T15:00:22.313Z,101884.84
2023-01-12T15:02:52.466Z,101876.06
2023-01-12T15:05:25.572Z,101857.94
2023-01-12T15:07:56.466Z,101838.13
2023-01-12T15:10:32.297Z,101752.19
2023-01-12T15:13:19.985Z,101863.56
2023-01-12T15:16:06.235Z,101856.03
2023-01-12T15:18:53.979Z,101845.69
2023-01-12T15:21:40.208Z,101852.16
2023-01-12T15:24:39.274Z,101845.09
2023-01-12T15:27:09.975Z,101852.66
2023-01-12T15:29:38.628Z,101846.22
2023-01-12T15:32:15.363Z,101847.00
2023-01-12T15:34:44.002Z,101849.69
2023-01-12T15:37:16.253Z,101835.25
2023-01-12T15:39:44.588Z,101855.22
2023-01-12T15:42:17.871Z,101863.50
2023-01-12T15:44:47.233Z,101865.94
2023-01-12T15:47:17.681Z,101837.63
2023-01-12T15:49:48.923Z,101747.97
2023-01-12T15:52:20.128Z,101739.34
2023-01-12T15:54:48.601Z,101868.63
2023-01-12T15:57:19.080Z,101860.72
2023-01-12T15:59:47.513Z,101871.78
2023-01-12T16:02:31.419Z,101868.16
2023-01-12T16:05:00.077Z,101866.66
2023-01-12T16:07:28.509Z,101861.78
2023-01-12T16:09:57.931Z,101871.97
2023-01-12T16:12:27.687Z,101876.22
2023-01-12T16:14:56.707Z,101878.25
2023-01-12T16:17:25.190Z,101880.25
2023-01-12T16:19:53.529Z,101870.88
2023-01-12T16:22:25.241Z,101838.84
2023-01-12T16:24:55.389Z,101841.13
2023-01-12T16:27:25.199Z,101869.09
2023-01-12T16:29:55.142Z,101872.47
2023-01-12T16:32:25.190Z,101845.97
2023-01-12T16:34:54.258Z,101874.25
2023-01-12T16:37:27.458Z,101853.72
2023-01-12T16:39:56.193Z,101840.84
2023-01-12T16:42:24.581Z,101882.84
2023-01-12T16:44:54.553Z,101887.44
2023-01-12T16:47:24.522Z,101881.59
2023-01-12T16:49:53.269Z,101875.22
2023-01-12T16:52:23.228Z,101733.44
2023-01-12T16:54:51.582Z,101875.88
2023-01-12T16:57:20.281Z,101873.53
2023-01-12T16:59:50.851Z,101872.03
2023-01-12T17:02:21.508Z,101874.91
2023-01-12T17:04:52.461Z,101874.16
2023-01-12T17:07:20.993Z,101881.94
2023-01-12T17:09:49.467Z,101885.69
2023-01-12T17:12:17.982Z,101883.53
2023-01-12T17:14:46.659Z,101883.03
2023-01-12T17:17:15.333Z,101884.59
2023-01-12T17:19:46.477Z,101869.41
2023-01-12T17:22:15.115Z,101878.56
2023-01-12T17:24:43.496Z,101870.56
2023-01-12T17:27:12.438Z,101863.84
2023-01-12T17:29:40.820Z,101873.09
2023-01-12T17:32:09.794Z,101869.56
2023-01-12T17:34:40.347Z,101866.69
2023-01-12T17:37:11.424Z,101828.00
2023-01-12T17:39:43.051Z,101844.13
2023-01-12T17:42:30.437Z,101843.78
2023-01-12T17:44:59.202Z,101853.66
2023-01-12T17:47:27.594Z,101848.84
2023-01-12T17:49:56.137Z,101849.59
2023-01-12T17:52:26.299Z,101848.44
2023-01-12T17:54:54.762Z,101853.66
2023-01-12T17:57:23.219Z,101848.44
2023-01-12T17:59:51.990Z,101847.69
2023-01-12T18:02:20.346Z,101848.53
2023-01-12T18:04:48.781Z,101849.22
2023-01-12T18:07:17.037Z,101837.81
2023-01-12T18:09:46.783Z,101836.97
2023-01-12T18:12:16.514Z,101844.44
2023-01-12T18:14:44.992Z,101833.63
2023-01-12T18:17:13.568Z,101841.88
2023-01-12T18:19:42.584Z,101844.06
2023-01-12T18:22:11.279Z,101834.28
2023-01-12T18:24:39.643Z,101841.00
2023-01-12T18:27:09.735Z,101837.31
2023-01-12T18:29:38.256Z,101840.16
2023-01-12T18:32:11.713Z,101841.88
2023-01-12T18:34:40.451Z,101851.66
2023-01-12T18:37:08.713Z,101847.50
2023-01-12T18:39:37.129Z,101851.50
2023-01-12T18:42:23.398Z,101854.63
2023-01-12T18:44:53.204Z,101845.19
2023-01-12T18:47:39.112Z,101843.91
2023-01-12T18:50:29.020Z,101834.22
2023-01-12T18:53:16.556Z,101835.47
2023-01-12T18:55:45.093Z,101836.44
2023-01-12T18:58:13.396Z,101839.09
2023-01-12T19:00:43.099Z,101830.25
2023-01-12T19:03:12.124Z,101834.06
2023-01-12T19:05:52.419Z,101813.91
2023-01-12T19:08:49.621Z,101831.84
2023-01-12T19:11:18.117Z,101830.84
2023-01-12T19:14:03.943Z,101835.69
2023-01-12T19:16:51.040Z,101825.53
2023-01-12T19:19:23.152Z,101832.13
2023-01-12T19:22:08.987Z,101838.31
2023-01-12T19:24:54.818Z,101836.41
2023-01-12T19:27:40.833Z,101835.75
2023-01-12T19:30:10.543Z,101824.91
2023-01-12T19:32:40.505Z,101837.13
2023-01-12T19:35:11.619Z,101839.56
2023-01-12T19:37:42.635Z,101853.06
2023-01-12T19:40:18.456Z,101844.78
2023-01-12T19:43:04.371Z,101848.00
2023-01-12T19:45:32.768Z,101843.91
2023-01-12T19:48:03.719Z,101846.41
2023-01-12T19:50:32.087Z,101842.59
2023-01-12T19:53:00.472Z,101848.38
2023-01-12T19:55:28.947Z,101845.72
2023-01-12T19:57:58.405Z,101835.75
2023-01-12T20:00:27.869Z,101824.16
2023-01-12T20:02:57.103Z,101818.84
2023-01-12T20:05:26.869Z,101812.97
2023-01-12T20:07:55.535Z,101808.25
2023-01-12T20:10:24.285Z,101794.38
2023-01-12T20:12:52.667Z,101783.75
2023-01-12T20:15:21.920Z,101782.59
2023-01-12T20:17:51.112Z,101776.53
2023-01-12T20:20:19.906Z,101784.78
2023-01-12T20:22:51.850Z,101777.72
2023-01-12T20:25:20.918Z,101799.22
2023-01-12T20:27:50.300Z,101801.03
2023-01-12T20:30:32.043Z,101802.06
2023-01-12T20:33:05.011Z,101798.97
2023-01-12T20:35:33.375Z,101792.28
2023-01-12T20:38:06.798Z,101731.59
2023-01-12T20:40:35.338Z,101781.75
2023-01-12T20:43:03.680Z,101777.28
2023-01-12T20:45:32.087Z,101775.78
2023-01-12T20:48:00.390Z,101771.63
2023-01-12T20:50:28.850Z,101762.13
2023-01-12T20:52:57.161Z,101770.00
2023-01-12T20:55:26.963Z,101778.94
2023-01-12T20:57:55.384Z,101776.28
2023-01-12T21:00:23.731Z,101780.56
2023-01-12T21:02:52.060Z,101788.34
2023-01-12T21:05:20.735Z,101785.88
2023-01-12T21:07:52.054Z,101782.72
2023-01-12T21:10:22.556Z,101780.34
2023-01-12T21:12:52.317Z,101779.41
2023-01-12T21:15:21.074Z,101779.22
2023-01-12T21:17:49.428Z,101774.75
2023-01-12T21:20:18.233Z,101783.03
2023-01-12T21:22:46.565Z,101776.75
2023-01-12T21:25:15.049Z,101778.47
2023-01-12T21:27:43.392Z,101769.72
2023-01-12T21:30:13.742Z,101772.59
2023-01-12T21:32:43.590Z,101772.69
2023-01-12T21:35:12.018Z,101774.47
2023-01-12T21:37:41.461Z,101783.13
2023-01-12T21:40:11.263Z,101777.72
2023-01-12T21:42:57.377Z,101791.09
2023-01-12T21:45:27.191Z,101777.72
2023-01-12T21:47:56.082Z,101769.59
2023-01-12T21:50:24.703Z,101749.13
2023-01-12T21:52:53.034Z,101785.78
2023-01-12T21:55:21.389Z,101780.56
2023-01-12T21:57:49.802Z,101784.16
2023-01-12T22:00:19.715Z,101789.00
2023-01-12T22:02:51.217Z,101793.56
2023-01-12T22:05:21.515Z,101796.31
2023-01-12T22:07:50.263Z,101798.97
2023-01-12T22:10:30.232Z,101797.34
2023-01-12T22:13:00.956Z,101813.47
2023-01-12T22:15:31.079Z,101799.16
2023-01-12T22:18:01.372Z,101789.84
2023-01-12T22:20:29.955Z,101803.44
2023-01-12T22:22:58.301Z,101796.31
2023-01-12T22:25:27.438Z,101806.09
2023-01-12T22:27:57.343Z,101815.00
2023-01-12T22:30:26.302Z,101822.31
2023-01-12T22:32:56.128Z,101804.19
2023-01-12T22:35:26.223Z,101784.25
2023-01-12T22:37:55.929Z,101817.75
2023-01-12T22:40:24.292Z,101809.59
2023-01-12T22:43:10.212Z,101808.66
2023-01-12T22:45:38.553Z,101806.00
2023-01-12T22:48:07.437Z,101803.25
2023-01-12T22:50:38.030Z,101800.88
2023-01-12T22:53:06.440Z,101803.13
2023-01-12T22:55:34.694Z,101800.66
2023-01-12T22:58:03.165Z,101802.66
2023-01-12T23:00:31.473Z,101808.72
2023-01-12T23:03:03.175Z,101804.19
2023-01-12T23:05:35.309Z,101781.31
2023-01-12T23:08:06.707Z,101804.53
2023-01-12T23:10:35.386Z,101804.72
2023-01-12T23:13:15.763Z,101806.94
2023-01-12T23:15:47.722Z,101801.03
2023-01-12T23:18:18.673Z,101787.25
2023-01-12T23:20:47.135Z,101773.78
2023-01-12T23:23:18.800Z,101778.25
2023-01-12T23:25:47.805Z,101769.34
2023-01-12T23:28:17.032Z,101750.00
2023-01-12T23:30:46.080Z,101747.50
2023-01-12T23:33:14.319Z,101749.31
2023-01-12T23:35:43.809Z,101754.63
2023-01-12T23:38:17.342Z,101750.09
2023-01-12T23:40:45.724Z,101759.94
2023-01-12T23:43:14.062Z,101759.25
2023-01-12T23:45:42.482Z,101754.72
2023-01-12T23:48:10.811Z,101760.88
2023-01-12T23:50:39.199Z,101734.69
2023-01-12T23:53:07.460Z,101762.09
2023-01-12T23:55:39.275Z,101757.94
2023-01-12T23:58:08.260Z,101768.44
